Time;durP1;ratioP1;P1;durP2;ratioP2;P2;SDS_P1;SDS_P2;PMS_P1;PMS_P2;Temp;Humidity;BMP_temperature;BMP_pressure;BME280_temperature;BME280_humidity;BME280_pressure;Samples;Min_cycle;Max_cycle;Signal;HPM_P1;HPM_P2
2023/12/13 00:02:06;;;;;;;11.68;6.22;;;10.70;99.90;;;10.93;100.00;99412.72;4880371;29;20117;-69
2023/12/13 00:04:34;;;;;;;10.27;6.45;;;10.70;99.90;;;10.90;100.00;99410.13;4880312;29;20057;-69
2023/12/13 00:07:03;;;;;;;10.35;6.30;;;10.70;99.90;;;10.96;100.00;99411.75;4880137;29;20119;-69
2023/12/13 00:09:31;;;;;;;12.00;7.00;;;10.70;99.90;;;10.78;100.00;99387.56;4880110;29;20128;-69
2023/12/13 00:12:01;;;;;;;14.32;7.45;;;10.70;99.90;;;10.89;100.00;99405.78;4879978;29;20078;-69
2023/12/13 00:14:29;;;;;;;12.73;6.77;;;10.70;99.90;;;10.90;100.00;99407.50;4879959;29;20049;-69
2023/12/13 00:16:58;;;;;;;16.63;7.47;;;10.70;99.90;;;10.87;100.00;99404.97;4878835;29;20056;-71
2023/12/13 00:19:26;;;;;;;10.40;8.43;;;10.70;99.90;;;10.89;100.00;99409.31;4880271;29;20044;-69
2023/12/13 00:21:55;;;;;;;13.43;8.35;;;10.70;99.90;;;10.88;100.00;99409.31;4879911;29;20119;-69
2023/12/13 00:24:23;;;;;;;18.48;9.38;;;10.70;99.90;;;10.87;100.00;99410.25;4879743;29;20073;-71
2023/12/13 00:26:51;;;;;;;16.63;9.38;;;10.70;99.90;;;10.91;100.00;99403.97;4879797;29;20108;-69
2023/12/13 00:29:21;;;;;;;17.27;8.95;;;10.70;99.90;;;10.91;100.00;99401.31;4879770;29;20045;-69
2023/12/13 00:31:49;;;;;;;15.13;9.63;;;10.70;99.90;;;10.86;100.00;99400.56;4879748;29;20106;-69
2023/12/13 00:34:18;;;;;;;15.27;9.77;;;10.70;99.90;;;10.87;100.00;99404.97;4894014;29;20044;-69
2023/12/13 00:36:46;;;;;;;16.13;9.63;;;10.70;99.90;;;10.89;100.00;99408.44;4879740;29;20056;-69
2023/12/13 00:39:15;;;;;;;16.20;9.77;;;10.70;99.90;;;10.93;100.00;99410.06;4880121;29;20486;-69
2023/12/13 00:41:44;;;;;;;14.18;8.98;;;10.70;99.90;;;10.94;100.00;99385.34;4879549;29;20398;-68
2023/12/13 00:44:12;;;;;;;14.50;8.90;;;10.70;99.90;;;11.07;100.00;99399.91;4878385;29;20064;-69
2023/12/13 00:46:42;;;;;;;16.42;9.20;;;10.80;99.90;;;11.06;100.00;99405.28;4879478;29;20080;-69
2023/12/13 00:49:11;;;;;;;15.57;9.73;;;10.80;99.90;;;11.11;100.00;99398.91;4879491;29;20075;-69
2023/12/13 00:51:39;;;;;;;15.27;8.90;;;10.90;99.90;;;11.01;100.00;99400.13;4879331;29;20289;-69
2023/12/13 00:54:08;;;;;;;16.90;9.18;;;10.80;99.90;;;11.12;100.00;99402.44;4879289;29;20056;-69
2023/12/13 00:56:36;;;;;;;13.55;8.38;;;10.90;99.90;;;11.09;100.00;99411.31;4878246;29;20451;-68
2023/12/13 00:59:05;;;;;;;12.57;8.85;;;10.90;99.90;;;11.07;100.00;99413.16;4879268;29;20140;-69
2023/12/13 01:01:33;;;;;;;16.48;9.05;;;10.90;99.90;;;11.11;100.00;99406.03;4877543;29;20116;-69
2023/12/13 01:04:03;;;;;;;11.95;8.18;;;10.90;99.90;;;11.05;100.00;99409.72;4878972;29;20057;-69
2023/12/13 01:06:32;;;;;;;13.85;8.02;;;10.90;99.90;;;10.99;100.00;99407.25;4879272;29;20045;-69
2023/12/13 01:09:00;;;;;;;11.80;7.55;;;10.80;99.90;;;11.05;100.00;99415.00;4879066;29;20464;-69
2023/12/13 01:11:28;;;;;;;10.27;7.35;;;10.80;99.90;;;11.07;100.00;99413.16;4878586;29;20120;-69
2023/12/13 01:13:57;;;;;;;13.93;8.45;;;10.80;99.90;;;11.01;100.00;99413.38;4878591;29;20104;-69
2023/12/13 01:16:25;;;;;;;13.88;7.50;;;10.80;99.90;;;11.05;100.00;99406.19;4878455;29;20048;-69
2023/12/13 01:18:54;;;;;;;10.48;7.05;;;10.80;99.90;;;11.09;100.00;99408.69;4878443;29;20041;-69
2023/12/13 01:21:24;;;;;;;12.20;7.32;;;10.80;99.90;;;11.16;100.00;99409.38;4877460;29;20088;-70
2023/12/13 01:23:52;;;;;;;10.68;6.43;;;10.90;99.90;;;11.14;100.00;99404.13;4892932;29;20057;-69
2023/12/13 01:26:20;;;;;;;10.05;6.68;;;10.90;99.90;;;11.21;100.00;99402.16;4878643;29;20056;-69
2023/12/13 01:28:49;;;;;;;10.57;6.72;;;10.90;99.90;;;11.27;100.00;99412.56;4878268;29;20065;-69
2023/12/13 01:31:18;;;;;;;9.35;6.60;;;11.00;99.90;;;11.21;100.00;99416.25;4877382;29;20057;-69
2023/12/13 01:33:47;;;;;;;8.98;6.32;;;11.00;99.90;;;11.18;100.00;99410.19;4878431;29;20070;-69
2023/12/13 01:36:15;;;;;;;9.68;6.18;;;11.00;99.90;;;11.24;100.00;99408.25;4878472;29;20033;-69
2023/12/13 01:38:45;;;;;;;10.13;6.32;;;11.00;99.90;;;11.24;100.00;99408.25;4878454;29;20509;-69
2023/12/13 01:41:13;;;;;;;9.03;5.83;;;11.00;99.90;;;11.27;100.00;99409.91;4878870;29;20053;-69
2023/12/13 01:43:42;;;;;;;9.55;6.22;;;11.00;99.90;;;11.27;100.00;99402.84;4878659;29;20056;-69
2023/12/13 01:46:13;;;;;;;10.93;5.85;;;11.00;99.90;;;11.04;100.00;99381.50;4878795;29;20471;-69
2023/12/13 01:48:41;;;;;;;9.20;6.22;;;11.00;99.90;;;11.25;100.00;99411.72;4878460;29;20406;-69
2023/12/13 01:51:11;;;;;;;12.07;6.57;;;11.00;99.90;;;11.19;100.00;99404.84;4878860;29;20503;-69
2023/12/13 01:53:41;;;;;;;8.90;6.10;;;11.00;99.90;;;11.19;100.00;99414.59;4878231;29;20048;-70
2023/12/13 01:56:13;;;;;;;8.75;6.65;;;11.00;99.90;;;11.13;100.00;99412.97;4878295;29;20101;-69
2023/12/13 01:58:42;;;;;;;10.90;6.78;;;10.90;99.90;;;11.14;100.00;99414.72;4878292;29;20045;-69
2023/12/13 02:01:10;;;;;;;10.13;7.07;;;10.90;99.90;;;11.08;100.00;99406.97;4878318;29;20056;-69
2023/12/13 02:03:43;;;;;;;16.85;7.93;;;10.80;99.90;;;11.10;100.00;99413.09;4878326;29;20141;-69
2023/12/13 02:06:11;;;;;;;11.80;8.32;;;10.90;99.90;;;11.10;100.00;99409.56;4878244;29;20045;-69
2023/12/13 02:08:40;;;;;;;11.55;7.53;;;10.90;99.90;;;11.12;100.00;99411.25;4892317;29;20113;-70
2023/12/13 02:11:10;;;;;;;10.57;6.85;;;10.90;99.90;;;11.06;100.00;99399.97;4878245;29;20424;-69
2023/12/13 02:13:39;;;;;;;13.20;8.15;;;10.80;99.90;;;11.04;100.00;99400.03;4878316;29;20403;-69
2023/12/13 02:16:08;;;;;;;11.63;7.57;;;10.80;99.90;;;10.98;100.00;99402.84;4895960;29;20103;-69
2023/12/13 02:18:37;;;;;;;13.40;8.10;;;10.70;99.90;;;10.92;100.00;99400.38;4881540;29;20470;-70
2023/12/13 02:21:07;;;;;;;13.05;8.30;;;10.70;99.90;;;10.93;100.00;99409.19;4881429;29;20053;-71
2023/12/13 02:23:38;;;;;;;11.90;8.43;;;10.70;99.90;;;10.90;100.00;99399.56;4881489;29;20410;-71
2023/12/13 02:26:07;;;;;;;13.50;8.70;;;10.70;99.90;;;10.88;100.00;99404.91;4881432;29;20060;-69
2023/12/13 02:28:36;;;;;;;18.30;9.68;;;10.60;99.90;;;10.81;100.00;99394.56;4881433;29;20077;-69
2023/12/13 02:31:04;;;;;;;14.25;9.65;;;10.60;99.90;;;10.83;100.00;99403.31;4881285;29;20080;-70
2023/12/13 02:33:33;;;;;;;19.48;9.88;;;10.60;99.90;;;10.86;100.00;99403.22;4881140;29;20083;-70
2023/12/13 02:36:03;;;;;;;15.65;9.52;;;10.60;99.90;;;10.88;100.00;99401.38;4881171;29;20057;-70
2023/12/13 02:38:32;;;;;;;13.70;9.55;;;10.60;99.90;;;10.84;100.00;99402.38;4880061;29;20147;-69
2023/12/13 02:41:02;;;;;;;16.35;10.68;;;10.60;99.90;;;10.87;100.00;99399.66;4881119;29;20129;-69
2023/12/13 02:43:31;;;;;;;16.58;9.45;;;10.60;99.90;;;10.87;100.00;99399.66;4881346;29;20407;-69
2023/12/13 02:46:00;;;;;;;17.40;9.73;;;10.70;99.90;;;10.75;100.00;99378.84;4881299;29;20063;-70
2023/12/13 02:48:28;;;;;;;19.75;10.13;;;10.60;99.90;;;10.75;100.00;99389.44;4881117;29;20127;-70
2023/12/13 02:50:57;;;;;;;15.65;10.57;;;10.60;99.90;;;10.77;100.00;99399.06;4881055;29;20479;-69
2023/12/13 02:53:25;;;;;;;16.33;10.80;;;10.60;99.90;;;10.75;100.00;99395.59;4880828;29;20073;-70
2023/12/13 02:55:54;;;;;;;15.60;10.55;;;10.50;99.90;;;10.77;100.00;99395.53;4880814;29;20117;-70
2023/12/13 02:58:24;;;;;;;17.00;9.80;;;10.50;99.90;;;10.82;100.00;99397.16;4880849;29;20402;-69
2023/12/13 03:00:53;;;;;;;16.05;8.88;;;10.60;99.90;;;10.86;100.00;99395.28;4894899;29;20064;-70
2023/12/13 03:03:21;;;;;;;14.52;9.25;;;10.60;99.90;;;10.92;100.00;99402.19;4880459;29;20084;-69
2023/12/13 03:05:50;;;;;;;15.70;9.95;;;10.70;99.90;;;10.94;100.00;99400.38;4880624;29;20049;-70
2023/12/13 03:08:18;;;;;;;14.90;8.80;;;10.70;99.90;;;10.95;100.00;99404.72;4880584;29;20056;-70
2023/12/13 03:10:47;;;;;;;13.73;9.05;;;10.70;99.90;;;10.92;100.00;99395.09;4880566;29;20049;-70
2023/12/13 03:13:15;;;;;;;13.30;9.20;;;10.70;99.90;;;10.88;100.00;99394.31;4894931;29;20463;-71
2023/12/13 03:15:45;;;;;;;12.63;8.82;;;10.70;99.90;;;10.98;100.00;99397.56;4880441;29;20097;-70
2023/12/13 03:18:14;;;;;;;16.75;9.15;;;10.70;99.90;;;11.01;100.00;99396.63;4880624;29;20053;-68
2023/12/13 03:20:43;;;;;;;19.33;9.55;;;10.80;99.90;;;10.97;100.00;99400.25;4880439;29;20055;-68
2023/12/13 03:23:11;;;;;;;13.68;9.57;;;10.80;99.90;;;10.96;100.00;99394.09;4880472;29;20073;-68
2023/12/13 03:25:39;;;;;;;15.68;9.70;;;10.70;99.90;;;10.91;100.00;99401.31;4880105;29;20049;-68
2023/12/13 03:28:08;;;;;;;13.48;8.15;;;10.70;99.90;;;10.15;100.00;99266.97;4880225;29;20139;-70
2023/12/13 03:30:37;;;;;;;17.05;9.25;;;10.70;99.90;;;10.89;100.00;99393.44;4880225;29;20068;-72
2023/12/13 03:33:07;;;;;;;17.73;8.73;;;10.70;99.90;;;10.82;100.00;99385.69;4880203;29;20048;-68
2023/12/13 03:35:35;;;;;;;10.18;8.07;;;10.60;99.90;;;10.85;100.00;99381.19;4880189;29;20045;-68
2023/12/13 03:38:05;;;;;;;14.80;8.95;;;10.70;99.90;;;10.86;100.00;99392.63;4880132;29;20482;-68
2023/12/13 03:40:33;;;;;;;17.33;9.18;;;10.60;99.90;;;10.78;100.00;99382.28;4879857;29;20045;-71
2023/12/13 03:43:02;;;;;;;18.38;9.02;;;10.60;99.90;;;10.77;100.00;99404.34;4880581;29;20049;-71
2023/12/13 03:45:30;;;;;;;12.38;9.52;;;10.60;99.90;;;10.84;100.00;99378.56;4879947;29;20049;-67
2023/12/13 03:47:58;;;;;;;14.13;9.70;;;10.60;99.90;;;10.85;100.00;99377.69;4879907;29;20049;-67
2023/12/13 03:50:29;;;;;;;15.68;9.68;;;10.60;99.90;;;10.82;100.00;99378.63;4879854;29;20055;-68
2023/12/13 03:52:57;;;;;;;19.73;10.60;;;10.60;99.90;;;10.84;100.00;99378.56;4879825;29;20061;-70
2023/12/13 03:55:25;;;;;;;17.38;10.10;;;10.60;99.90;;;10.84;100.00;99379.44;4894313;29;20140;-69
2023/12/13 03:57:54;;;;;;;16.42;10.52;;;10.60;99.90;;;10.91;100.00;99382.78;4879794;29;20045;-68
2023/12/13 04:00:22;;;;;;;16.92;10.32;;;10.70;99.90;;;10.96;100.00;99386.16;4879678;29;20482;-69
2023/12/13 04:02:51;;;;;;;18.33;11.00;;;10.70;99.90;;;10.93;100.00;99378.31;4879607;29;20057;-68
2023/12/13 04:05:19;;;;;;;20.38;11.52;;;10.70;99.90;;;10.96;100.00;99383.50;4879715;29;20041;-68
2023/12/13 04:07:49;;;;;;;18.63;11.68;;;10.80;99.90;;;10.97;100.00;99379.09;4879583;29;20072;-68
2023/12/13 04:10:19;;;;;;;16.08;10.73;;;10.70;99.90;;;10.99;100.00;99380.78;4879617;29;20081;-68
2023/12/13 04:12:48;;;;;;;18.58;11.05;;;10.80;99.90;;;10.98;100.00;99386.97;4879721;29;20136;-69
2023/12/13 04:15:16;;;;;;;18.67;11.32;;;10.70;99.90;;;11.01;100.00;99380.75;4879516;29;20056;-68
2023/12/13 04:17:45;;;;;;;18.08;11.50;;;10.80;99.90;;;10.97;100.00;99379.97;4909592;29;20049;-68
2023/12/13 04:20:13;;;;;;;20.00;12.02;;;10.70;99.90;;;11.03;100.00;99381.56;4879475;29;20098;-68
2023/12/13 04:22:42;;;;;;;18.67;11.07;;;10.80;99.90;;;11.07;100.00;99375.28;4879477;29;20049;-68
2023/12/13 04:25:12;;;;;;;17.63;11.45;;;10.80;99.90;;;11.04;100.00;99376.22;4879437;29;20057;-68
2023/12/13 04:27:41;;;;;;;23.58;11.85;;;10.80;99.90;;;11.00;100.00;99371.94;4879524;29;20137;-68
2023/12/13 04:30:11;;;;;;;19.17;12.07;;;10.80;99.90;;;11.04;100.00;99376.22;4879621;29;20068;-70
2023/12/13 04:32:39;;;;;;;21.52;12.40;;;10.80;99.90;;;11.06;100.00;99374.41;4879484;29;20061;-68
2023/12/13 04:35:09;;;;;;;21.60;13.80;;;10.80;99.90;;;11.10;100.00;99370.75;4879293;29;20120;-68
2023/12/13 04:37:38;;;;;;;23.67;13.32;;;10.90;99.90;;;10.93;100.00;99359.81;4878563;29;20057;-70
2023/12/13 04:40:08;;;;;;;26.63;14.15;;;10.90;99.90;;;11.10;100.00;99373.38;4879133;29;20045;-70
2023/12/13 04:42:38;;;;;;;29.43;15.40;;;10.90;99.90;;;11.10;100.00;99373.38;4879386;29;20097;-68
2023/12/13 04:45:09;;;;;;;23.77;15.55;;;10.90;99.90;;;11.09;100.00;99366.34;4893630;29;20077;-68
2023/12/13 04:47:37;;;;;;;26.00;15.05;;;10.90;99.90;;;11.12;100.00;99368.03;4879057;29;20051;-68
2023/12/13 04:50:08;;;;;;;22.92;15.02;;;10.90;99.90;;;11.09;100.00;99371.63;4878975;29;20071;-70
2023/12/13 04:52:37;;;;;;;25.92;15.52;;;10.90;99.90;;;11.13;100.00;99369.78;4879045;29;20125;-69
2023/12/13 04:55:06;;;;;;;26.08;15.02;;;10.90;99.90;;;11.18;100.00;99368.72;4878844;29;20045;-68
2023/12/13 04:57:34;;;;;;;21.42;13.45;;;10.90;99.90;;;11.19;100.00;99367.81;4878750;29;20053;-69
2023/12/13 05:00:07;;;;;;;19.35;13.27;;;10.90;99.90;;;11.25;100.00;99366.75;4879000;29;20044;-69
2023/12/13 05:02:36;;;;;;;26.40;13.55;;;11.00;99.90;;;11.27;100.00;99368.44;4878764;29;20073;-68
2023/12/13 05:05:05;;;;;;;18.92;12.50;;;11.10;99.90;;;11.28;100.00;99374.59;4878801;29;20332;-68
2023/12/13 05:07:34;;;;;;;23.42;12.63;;;11.10;99.90;;;11.28;100.00;99370.19;4878610;29;20147;-68
2023/12/13 05:10:03;;;;;;;23.42;13.30;;;11.10;99.90;;;11.31;100.00;99363.91;4878582;29;20048;-68
2023/12/13 05:12:32;;;;;;;21.30;13.20;;;11.10;99.90;;;11.34;100.00;99369.97;4878480;29;20048;-68
2023/12/13 05:15:00;;;;;;;22.27;11.90;;;11.10;99.90;;;11.33;100.00;99373.53;4878534;29;20101;-68
2023/12/13 05:17:31;;;;;;;20.30;12.57;;;11.10;99.90;;;11.38;100.00;99373.41;4878926;29;20160;-68
2023/12/13 05:20:00;;;;;;;22.23;11.48;;;11.20;99.90;;;11.42;100.00;99369.75;4878475;29;20067;-68
2023/12/13 05:22:29;;;;;;;19.67;11.75;;;11.20;99.90;;;11.39;100.00;99367.19;4878448;29;20053;-68
2023/12/13 05:24:57;;;;;;;23.27;11.23;;;11.20;99.90;;;11.38;100.00;99370.75;4878349;29;20057;-68
2023/12/13 05:27:26;;;;;;;23.58;11.50;;;11.20;99.90;;;11.39;100.00;99372.47;4878333;29;20420;-68
2023/12/13 05:29:54;;;;;;;24.08;12.95;;;11.20;99.90;;;11.45;100.00;99375.81;4878395;29;20053;-69
2023/12/13 05:32:23;;;;;;;19.88;11.75;;;11.20;99.90;;;11.40;100.00;99382.16;4878329;29;20081;-68
2023/12/13 05:34:52;;;;;;;20.50;12.23;;;11.20;99.90;;;11.39;100.00;99375.13;4892574;29;20144;-68
2023/12/13 05:37:21;;;;;;;21.08;11.48;;;11.20;99.90;;;11.39;100.00;99373.34;4878208;29;20041;-69
2023/12/13 05:39:49;;;;;;;25.17;13.48;;;11.20;99.90;;;11.41;100.00;99375.94;4878359;29;20057;-68
2023/12/13 05:42:18;;;;;;;23.05;12.20;;;11.20;99.90;;;11.38;100.00;99376.91;4878146;29;20073;-68
2023/12/13 05:44:46;;;;;;;20.20;11.32;;;11.20;99.90;;;11.42;100.00;99377.69;4878318;29;20419;-68
2023/12/13 05:47:15;;;;;;;22.52;12.30;;;11.20;99.90;;;11.34;100.00;99375.25;4878227;29;20057;-68
2023/12/13 05:49:44;;;;;;;21.33;12.00;;;11.20;99.90;;;11.48;100.00;99380.13;4881915;29;20124;-68
2023/12/13 05:52:14;;;;;;;19.15;11.52;;;11.30;99.90;;;11.51;100.00;99378.25;4882181;29;20045;-68
2023/12/13 05:54:42;;;;;;;23.07;12.53;;;11.30;99.90;;;11.54;100.00;99383.44;4881945;29;20202;-68
2023/12/13 05:57:11;;;;;;;23.75;12.25;;;11.30;99.90;;;11.55;100.00;99379.91;4881739;29;20080;-69
2023/12/13 05:59:39;;;;;;;22.30;13.88;;;11.40;99.90;;;11.58;100.00;99381.56;4881818;29;20052;-68
2023/12/13 06:02:08;;;;;;;22.00;12.75;;;11.40;99.90;;;11.61;100.00;99379.66;4881766;29;20056;-68
2023/12/13 06:04:36;;;;;;;23.30;13.25;;;11.40;99.90;;;11.61;100.00;99378.84;4882049;29;20502;-69
2023/12/13 06:07:05;;;;;;;29.23;13.70;;;11.40;99.90;;;11.67;100.00;99383.97;4881623;29;20101;-68
2023/12/13 06:09:35;;;;;;;23.55;14.32;;;11.40;99.90;;;11.65;100.00;99380.47;4881577;29;20049;-68
2023/12/13 06:12:04;;;;;;;25.17;15.43;;;11.40;99.90;;;11.64;100.00;99381.38;4880344;29;20048;-68
2023/12/13 06:14:32;;;;;;;29.10;14.73;;;11.40;99.90;;;11.63;100.00;99374.34;4881536;29;20455;-68
2023/12/13 06:17:00;;;;;;;22.05;13.40;;;11.40;99.90;;;11.58;100.00;99374.50;4881347;29;20120;-68
2023/12/13 06:19:29;;;;;;;25.08;13.68;;;11.40;99.90;;;11.53;100.00;99381.72;4881352;29;20057;-68
2023/12/13 06:21:58;;;;;;;24.33;13.48;;;11.40;99.90;;;11.53;100.00;99379.09;4881408;29;20045;-68
2023/12/13 06:24:26;;;;;;;23.27;12.52;;;11.30;99.90;;;11.53;100.00;99375.56;4881431;29;20487;-68
2023/12/13 06:26:57;;;;;;;23.75;13.63;;;11.30;99.90;;;11.53;100.00;99380.84;4881294;29;20481;-68
2023/12/13 06:29:25;;;;;;;;;;;11.30;99.90;;;11.54;100.00;99378.16;4881686;29;20052;-68
2023/12/13 06:31:54;;;;;;;23.10;13.13;;;11.30;99.90;;;11.55;100.00;99386.97;4881243;29;20469;-69
2023/12/13 06:34:22;;;;;;;25.08;13.93;;;11.30;99.90;;;11.54;100.00;99380.81;4881347;29;20069;-68
2023/12/13 06:36:50;;;;;;;24.90;14.32;;;11.30;99.90;;;11.49;100.00;99377.44;4881072;29;20575;-68
2023/12/13 06:39:19;;;;;;;27.55;14.32;;;11.30;99.90;;;11.49;100.00;99377.44;4881149;29;20059;-69
2023/12/13 06:41:47;;;;;;;33.15;14.10;;;11.30;99.90;;;11.49;100.00;99379.22;4895487;29;20481;-69
2023/12/13 06:44:17;;;;;;;26.60;14.93;;;11.30;99.90;;;11.52;100.00;99382.63;4881298;29;20060;-68
2023/12/13 06:46:45;;;;;;;30.33;15.05;;;11.30;99.90;;;11.52;100.00;99384.41;4881022;29;20056;-68
2023/12/13 06:49:14;;;;;;;26.92;14.48;;;11.30;99.90;;;11.51;100.00;99388.84;4881142;29;20136;-68
2023/12/13 06:51:43;;;;;;;25.88;15.20;;;11.30;99.90;;;11.54;100.00;99383.44;4881247;29;20441;-68
2023/12/13 06:54:11;;;;;;;28.77;15.85;;;11.30;99.90;;;11.55;100.00;99395.78;4881199;29;20049;-68
2023/12/13 06:56:40;;;;;;;23.33;14.95;;;11.30;99.90;;;10.96;100.00;99305.94;4880810;29;20057;-69
2023/12/13 06:59:08;;;;;;;27.60;15.05;;;11.30;99.90;;;11.59;100.00;99385.97;4880617;29;20041;-68
2023/12/13 07:01:40;;;;;;;28.80;16.70;;;11.40;99.90;;;11.60;100.00;99385.03;4881178;29;20116;-68
2023/12/13 07:04:09;;;;;;;26.00;15.10;;;11.40;99.90;;;11.61;100.00;99387.63;4880872;29;20057;-68
2023/12/13 07:06:38;;;;;;;21.58;14.77;;;11.40;99.90;;;11.57;100.00;99380.72;4881064;29;20060;-70
2023/12/13 07:09:07;;;;;;;25.60;16.13;;;11.40;99.90;;;11.64;100.00;99382.25;4881135;29;20052;-70
2023/12/13 07:11:36;;;;;;;26.90;15.45;;;11.40;99.90;;;11.63;100.00;99388.44;4879732;29;20053;-70
2023/12/13 07:14:04;;;;;;;24.00;15.45;;;11.50;99.90;;;11.62;100.00;99388.50;4879568;29;20108;-70
2023/12/13 07:16:32;;;;;;;25.42;15.07;;;11.40;99.90;;;11.66;100.00;99380.44;4880434;29;20073;-70
2023/12/13 07:19:02;;;;;;;23.85;16.35;;;11.50;99.90;;;11.71;100.00;99394.38;4880804;29;20056;-70
2023/12/13 07:21:31;;;;;;;26.25;15.50;;;11.50;99.90;;;11.73;100.00;99389.91;4880340;29;20053;-70
2023/12/13 07:23:59;;;;;;;26.10;16.63;;;11.50;99.90;;;11.75;100.00;99392.50;4879307;29;20086;-70
2023/12/13 07:26:27;;;;;;;28.48;16.02;;;11.50;99.90;;;11.69;100.00;99395.38;4880354;29;20175;-72
2023/12/13 07:28:56;;;;;;;28.13;15.60;;;11.50;99.90;;;11.66;100.00;99393.69;4894559;29;20053;-70
2023/12/13 07:31:24;;;;;;;25.20;15.13;;;11.50;99.90;;;11.68;100.00;99397.16;4880133;29;20411;-70
2023/12/13 07:33:53;;;;;;;26.95;16.17;;;11.50;99.90;;;11.67;100.00;99395.41;4880172;29;20049;-70
2023/12/13 07:36:23;;;;;;;25.65;15.50;;;11.50;99.90;;;11.67;100.00;99398.03;4880187;29;20095;-70
2023/12/13 07:38:51;;;;;;;28.10;16.10;;;11.50;99.90;;;11.50;100.00;99379.16;4880070;29;20048;-70
2023/12/13 07:41:20;;;;;;;25.48;15.20;;;11.50;99.90;;;11.67;100.00;99399.84;4880102;29;20555;-69
2023/12/13 07:43:49;;;;;;;22.48;15.05;;;11.50;99.90;;;11.65;100.00;99406.94;4879899;29;20056;-70
2023/12/13 07:46:17;;;;;;;23.00;15.48;;;11.50;99.90;;;11.69;100.00;99414.75;4879926;29;20041;-70
2023/12/13 07:48:45;;;;;;;24.85;15.70;;;11.50;99.90;;;11.70;100.00;99411.22;4879805;29;20048;-70
2023/12/13 07:51:14;;;;;;;24.05;15.63;;;11.50;99.90;;;11.70;100.00;99421.81;4880092;29;20135;-71
2023/12/13 07:53:44;;;;;;;30.00;15.88;;;11.50;99.90;;;11.59;100.00;99423.88;4879808;29;20131;-70
2023/12/13 07:56:14;;;;;;;31.70;17.05;;;11.50;99.90;;;11.55;100.00;99416.97;4879916;29;20124;-70
2023/12/13 07:58:54;;;;;;;;;;;11.40;99.90;;;11.56;100.00;99426.63;4880156;29;20041;-72
2023/12/13 08:01:26;;;;;;;30.55;17.42;;;11.40;99.90;;;11.44;100.00;99429.66;4879766;29;19955;-71
2023/12/13 08:03:56;;;;;;;26.35;15.95;;;11.30;99.90;;;11.44;100.00;99432.31;4879736;29;20061;-70
2023/12/13 08:06:24;;;;;;;33.40;16.30;;;11.30;99.90;;;11.53;100.00;99417.91;4879540;29;20057;-69
2023/12/13 08:08:54;;;;;;;27.27;16.73;;;11.40;99.90;;;11.54;100.00;99428.47;4879465;29;20045;-69
2023/12/13 08:11:23;;;;;;;25.85;17.20;;;11.30;99.90;;;11.41;100.00;99426.25;4879494;29;20379;-69
2023/12/13 08:13:52;;;;;;;29.42;17.77;;;11.30;99.90;;;11.38;100.00;99435.13;4893546;29;20081;-69
2023/12/13 08:16:22;;;;;;;35.83;18.80;;;11.30;99.90;;;11.44;100.00;99440.25;4879353;29;20397;-71
2023/12/13 08:18:52;;;;;;;31.88;18.35;;;11.30;99.90;;;11.43;100.00;99440.28;4894023;29;20052;-70
2023/12/13 08:21:23;;;;;;;;;;;11.30;99.90;;;11.30;100.00;99431.88;4879926;29;20060;-72
2023/12/13 08:23:54;;;;;;;35.25;18.65;;;11.20;99.90;;;11.46;100.00;99443.72;4879323;29;19923;-71
2023/12/13 08:26:22;;;;;;;30.53;18.67;;;11.30;99.90;;;11.47;100.00;99434.00;4879156;29;20100;-72
2023/12/13 08:28:50;;;;;;;28.80;18.13;;;11.30;99.90;;;11.50;100.00;99434.75;4879140;29;20290;-72
2023/12/13 08:31:32;;;;;;;29.75;18.83;;;11.40;99.90;;;11.59;100.00;99439.75;4893558;29;20574;-71
2023/12/13 08:34:01;;;;;;;32.50;18.48;;;11.50;99.90;;;11.12;100.00;99344.22;4893504;29;20515;-71
2023/12/13 08:36:31;;;;;;;26.85;17.50;;;11.50;99.90;;;11.74;100.00;99444.63;4879098;29;20135;-72
2023/12/13 08:39:02;;;;;;;26.40;17.05;;;11.50;99.90;;;11.78;100.00;99443.63;4893265;29;20055;-69
2023/12/13 08:41:32;;;;;;;25.90;17.48;;;11.60;99.90;;;11.84;100.00;99441.69;4879433;29;20075;-74
2023/12/13 08:44:00;;;;;;;29.48;17.83;;;11.70;99.90;;;11.97;100.00;99449.19;4879000;29;20480;-72
2023/12/13 08:46:28;;;;;;;30.13;17.95;;;11.80;99.90;;;12.00;100.00;99450.88;4878995;29;20423;-73
2023/12/13 08:48:57;;;;;;;26.05;17.23;;;11.80;99.90;;;11.98;100.00;99460.66;4878979;29;20052;-72
2023/12/13 08:51:26;;;;;;;27.70;16.38;;;11.80;99.90;;;12.09;100.00;99458.50;4878839;29;20041;-71
2023/12/13 08:53:55;;;;;;;33.00;17.27;;;11.90;99.90;;;12.09;100.00;99462.03;4877787;29;20094;-72
2023/12/13 08:56:24;;;;;;;28.60;17.67;;;11.90;99.90;;;12.11;100.00;99456.66;4879121;29;20470;-71
2023/12/13 08:58:53;;;;;;;26.77;17.40;;;11.90;99.90;;;11.51;100.00;99356.22;4893642;29;20105;-71
2023/12/13 09:01:21;;;;;;;27.10;16.35;;;12.00;99.90;;;12.19;100.00;99467.88;4879118;29;20469;-71
2023/12/13 09:03:55;;;;;;;29.13;18.05;;;12.00;99.90;;;12.20;100.00;99474.91;4878781;29;20061;-68
2023/12/13 09:06:24;;;;;;;27.95;17.48;;;12.00;99.90;;;12.21;100.00;99474.00;4878715;29;20120;-69
2023/12/13 09:08:53;;;;;;;28.55;16.60;;;12.00;99.90;;;12.22;100.00;99478.38;4878629;29;20041;-68
2023/12/13 09:11:23;;;;;;;28.20;16.80;;;12.10;99.90;;;12.24;100.00;99484.50;4878605;29;20525;-72
2023/12/13 09:13:52;;;;;;;27.60;16.33;;;12.00;99.90;;;12.20;100.00;99485.50;4879042;29;20053;-72
2023/12/13 09:16:20;;;;;;;29.15;16.20;;;12.10;99.90;;;11.71;100.00;99401.50;4878630;29;20301;-71
2023/12/13 09:18:49;;;;;;;27.17;16.67;;;12.10;99.90;;;12.21;100.00;99488.13;4878617;29;20049;-69
2023/12/13 09:21:17;;;;;;;26.98;17.33;;;12.10;99.90;;;12.27;100.00;99493.19;4878666;29;20410;-69
2023/12/13 09:23:46;;;;;;;32.67;20.05;;;12.10;99.90;;;12.21;100.00;99485.47;4878236;29;20566;-70
2023/12/13 09:26:14;;;;;;;37.05;19.90;;;12.00;99.90;;;12.18;100.00;99490.88;4878773;29;20064;-69
2023/12/13 09:28:44;;;;;;;32.10;19.40;;;12.00;99.90;;;12.00;100.00;99486.16;4878709;29;20049;-70
2023/12/13 09:31:13;;;;;;;35.33;20.85;;;11.90;99.90;;;12.17;100.00;99493.56;4878488;29;20049;-72
2023/12/13 09:33:42;;;;;;;32.65;19.50;;;12.00;99.90;;;12.16;100.00;99498.00;4878905;29;20053;-74
2023/12/13 09:36:11;;;;;;;33.72;19.75;;;11.90;99.90;;;12.14;100.00;99491.00;4878783;29;20072;-72
2023/12/13 09:38:39;;;;;;;32.58;19.42;;;12.00;99.90;;;12.08;100.00;99496.53;4877055;29;20049;-71
2023/12/13 09:41:09;;;;;;;37.15;19.70;;;11.90;99.90;;;12.11;100.00;99501.72;4892588;29;20053;-68
2023/12/13 09:43:42;;;;;;;35.45;20.52;;;11.90;99.90;;;12.10;100.00;99500.00;4892579;29;20053;-69
2023/12/13 09:46:17;;;;;;;33.50;20.90;;;11.90;99.90;;;12.03;100.00;99485.19;4878784;29;20049;-68
2023/12/13 09:48:46;;;;;;;28.48;20.13;;;11.90;99.90;;;11.53;100.00;99388.81;4878637;29;20068;-69
2023/12/13 09:51:18;;;;;;;33.70;21.40;;;12.00;99.90;;;12.26;100.00;99510.03;4878386;29;20045;-69
2023/12/13 09:53:49;;;;;;;35.97;22.33;;;12.00;99.90;;;12.03;100.00;99509.94;4878266;29;20059;-69
2023/12/13 09:56:19;;;;;;;38.22;21.73;;;11.90;99.90;;;12.02;100.00;99518.78;4878458;29;20052;-69
2023/12/13 09:58:48;;;;;;;36.55;22.20;;;11.90;99.90;;;12.09;100.00;99519.47;4878827;29;20048;-69
2023/12/13 10:01:18;;;;;;;33.85;22.38;;;11.90;99.90;;;12.07;100.00;99527.47;4878109;29;20093;-70
2023/12/13 10:03:47;;;;;;;33.70;22.40;;;11.90;99.90;;;11.95;100.00;99527.84;4878307;29;20144;-71
2023/12/13 10:06:16;;;;;;;38.08;23.98;;;11.80;99.90;;;11.88;100.00;99528.09;4878006;29;20124;-71
2023/12/13 10:08:53;;;;;;;37.72;23.65;;;11.80;99.90;;;11.94;100.00;99533.19;4877939;29;20045;-72
2023/12/13 10:11:22;;;;;;;42.58;25.73;;;11.80;99.90;;;11.91;100.00;99538.56;4878223;29;20052;-72